Time;durP1;ratioP1;P1;durP2;ratioP2;P2;SDS_P1;SDS_P2;PMS_P1;PMS_P2;Temp;Humidity;BMP_temperature;BMP_pressure;BME280_temperature;BME280_humidity;BME280_pressure;Samples;Min_cycle;Max_cycle;Signal;HPM_P1;HPM_P2
2023/03/24 00:03:16;;;;;;;11.15;4.97;;;14.00;99.90;;;;;;5056326;28;20020;-76
2023/03/24 00:06:12;;;;;;;10.38;5.07;;;12.80;99.90;;;;;;5040688;28;20036;-77
2023/03/24 00:08:51;;;;;;;7.60;4.80;;;13.50;99.90;;;;;;5065505;28;20382;-76
2023/03/24 00:15:50;;;;;;;;;;;;;;;;;;;;;
2023/03/24 00:18:17;;;;;;;10.50;5.47;;;15.20;99.90;;;;;;5024051;28;20040;-77
2023/03/24 00:24:13;;;;;;;9.82;5.22;;;12.50;99.90;;;;;;5036966;28;20091;-75
2023/03/24 00:27:30;;;;;;;;;;;;;;;;;;;;;
2023/03/24 00:29:59;;;;;;;7.65;4.63;;;11.60;99.90;;;;;;5064195;28;20040;-75
2023/03/24 00:32:46;;;;;;;8.23;4.15;;;12.40;99.90;;;;;;5056610;28;20032;-77
2023/03/24 00:35:19;;;;;;;9.95;4.85;;;15.50;99.90;;;;;;5055761;28;20044;-77
2023/03/24 00:37:45;;;;;;;10.40;4.95;;;12.10;99.90;;;;;;5060869;28;20025;-76
2023/03/24 00:40:32;;;;;;;10.73;4.10;;;13.70;99.90;;;;;;5060567;28;20025;-78
2023/03/24 00:43:08;;;;;;;12.52;5.72;;;9.20;99.90;;;;;;5093966;28;20036;-74
2023/03/24 00:45:33;;;;;;;9.13;4.47;;;15.60;99.90;;;;;;5069798;28;20064;-76
2023/03/24 00:47:59;;;;;;;9.63;6.10;;;15.00;99.90;;;;;;5043724;28;20056;-76
2023/03/24 00:53:58;;;;;;;8.52;4.85;;;12.20;99.90;;;;;;5025989;28;20064;-76
2023/03/24 00:56:48;;;;;;;7.75;4.65;;;14.00;99.90;;;;;;5099047;28;20338;-76
2023/03/24 00:59:14;;;;;;;9.05;4.85;;;12.20;99.90;;;;;;5076343;28;20068;-76
2023/03/24 01:02:47;;;;;;;8.13;4.25;;;12.30;99.90;;;;;;5046257;28;20037;-77
2023/03/24 01:05:16;;;;;;;13.70;5.20;;;11.20;99.90;;;;;;4966617;28;20052;-77
2023/03/24 01:07:44;;;;;;;9.23;5.35;;;13.00;99.90;;;;;;4994440;28;20038;-77
2023/03/24 01:10:12;;;;;;;5.68;4.57;;;14.30;99.90;;;;;;5013177;28;20153;-77
2023/03/24 01:12:40;;;;;;;8.55;4.57;;;14.40;99.90;;;;;;5000956;28;20104;-76
2023/03/24 01:15:17;;;;;;;7.05;4.63;;;13.90;99.90;;;;;;4999154;28;20061;-79
2023/03/24 01:17:47;;;;;;;7.70;4.53;;;11.70;99.90;;;;;;5088693;28;20035;-78
2023/03/24 01:20:14;;;;;;;10.65;5.80;;;11.30;99.90;;;;;;5096050;28;20056;-78
2023/03/24 01:22:43;;;;;;;5.50;4.07;;;11.60;99.90;;;;;;5062577;28;20094;-78
2023/03/24 01:25:22;;;;;;;7.45;4.93;;;11.30;99.90;;;;;;5063137;28;20143;-78
2023/03/24 01:27:49;;;;;;;5.72;4.03;;;15.00;99.90;;;;;;5046012;28;20033;-76
2023/03/24 01:30:18;;;;;;;9.43;5.00;;;14.80;99.90;;;;;;5063011;28;20041;-79
2023/03/24 01:33:27;;;;;;;8.88;5.03;;;14.80;99.90;;;;;;5085013;28;20039;-79
2023/03/24 01:35:53;;;;;;;9.15;5.47;;;14.40;99.90;;;;;;5068262;28;20037;-75
2023/03/24 01:38:20;;;;;;;6.55;3.55;;;11.50;99.90;;;;;;5080989;28;20306;-78
2023/03/24 01:40:46;;;;;;;5.63;4.03;;;13.40;99.90;;;;;;5064726;28;20056;-79
2023/03/24 01:43:40;;;;;;;7.63;5.13;;;14.00;99.90;;;;;;5082999;28;20040;-76
2023/03/24 01:49:58;;;;;;;6.68;4.72;;;13.30;99.90;;;;;;4995526;28;20368;-77
2023/03/24 01:52:28;;;;;;;6.85;3.40;;;10.70;99.90;;;;;;5070980;28;20028;-75
2023/03/24 01:55:18;;;;;;;7.57;4.30;;;13.20;99.90;;;;;;5066608;28;20039;-76
2023/03/24 02:02:44;;;;;;;;;;;;;;;;;;;;;
2023/03/24 02:05:34;;;;;;;6.93;4.43;;;13.90;99.90;;;;;;5093576;28;20071;-75
2023/03/24 02:08:18;;;;;;;5.95;3.53;;;12.70;99.90;;;;;;5103945;28;20059;-74
2023/03/24 02:10:44;;;;;;;6.60;4.50;;;14.70;99.90;;;;;;5115872;28;20034;-76
2023/03/24 02:13:13;;;;;;;7.47;4.43;;;13.70;99.90;;;;;;5084256;28;20031;-76
2023/03/24 02:15:49;;;;;;;5.95;4.60;;;14.10;99.90;;;;;;5094993;28;20106;-77
2023/03/24 02:25:15;;;;;;;8.15;4.15;;;14.40;99.90;;;;;;5090282;28;20036;-75
2023/03/24 02:27:59;;;;;;;4.93;4.20;;;14.80;99.90;;;;;;5076957;28;20028;-74
2023/03/24 02:30:48;;;;;;;5.78;4.63;;;12.00;99.90;;;;;;5099451;28;20072;-76
2023/03/24 02:33:37;;;;;;;10.77;5.28;;;14.30;99.90;;;;;;5076834;28;20027;-74
2023/03/24 02:36:32;;;;;;;8.48;5.38;;;12.60;99.90;;;;;;5098366;28;20234;-77
2023/03/24 02:39:26;;;;;;;8.23;5.18;;;14.30;99.90;;;;;;5067088;28;20050;-76
2023/03/24 02:42:05;;;;;;;6.90;4.40;;;12.10;99.90;;;;;;5087425;28;20058;-76
2023/03/24 02:45:04;;;;;;;7.35;4.93;;;14.20;99.90;;;;;;5099377;28;20058;-77
2023/03/24 02:47:54;;;;;;;6.22;5.03;;;12.60;99.90;;;;;;5030875;28;20067;-77
2023/03/24 02:54:51;;;;;;;8.38;5.13;;;16.00;99.90;;;;;;4981155;28;20050;-74
2023/03/24 02:57:23;;;;;;;6.38;4.68;;;13.50;99.90;;;;;;5121948;28;20099;-76
2023/03/24 03:00:18;;;;;;;5.82;4.60;;;11.80;99.90;;;;;;5088648;28;20099;-77
2023/03/24 03:02:54;;;;;;;7.40;5.20;;;14.10;99.90;;;;;;5069513;28;20049;-77
2023/03/24 03:05:35;;;;;;;7.88;5.45;;;15.50;99.90;;;;;;5085128;28;20067;-78
2023/03/24 03:08:04;;;;;;;7.90;4.97;;;14.60;99.90;;;;;;5122830;27;20213;-78
2023/03/24 03:10:44;;;;;;;6.97;4.82;;;11.90;99.90;;;;;;5087880;28;20050;-75
2023/03/24 03:13:30;;;;;;;8.30;5.00;;;15.60;99.90;;;;;;5138514;27;20276;-77
2023/03/24 03:16:02;;;;;;;8.30;5.03;;;14.40;99.90;;;;;;5140102;27;20043;-76
2023/03/24 03:19:00;;;;;;;7.55;4.95;;;13.40;99.90;;;;;;5076035;28;20225;-76
2023/03/24 03:21:40;;;;;;;6.63;4.35;;;15.10;99.90;;;;;;5088453;28;20051;-76
2023/03/24 03:24:10;;;;;;;7.43;4.45;;;12.10;99.90;;;;;;5079605;28;20104;-76
2023/03/24 03:26:36;;;;;;;9.82;5.50;;;14.60;99.90;;;;;;5085133;28;20039;-76
2023/03/24 03:29:12;;;;;;;8.55;4.43;;;12.20;99.90;;;;;;5086051;28;20069;-77
2023/03/24 03:31:49;;;;;;;9.18;5.22;;;14.50;99.90;;;;;;5084935;28;20184;-76
2023/03/24 03:34:18;;;;;;;6.90;4.82;;;13.90;99.90;;;;;;5123275;27;20043;-76
2023/03/24 03:36:53;;;;;;;6.20;4.53;;;13.30;99.90;;;;;;5118956;27;20218;-75
2023/03/24 03:39:37;;;;;;;7.10;4.80;;;14.60;99.90;;;;;;5098745;28;20378;-75
2023/03/24 03:42:09;;;;;;;4.57;3.50;;;12.40;99.90;;;;;;5087431;28;20242;-76
2023/03/24 03:44:49;;;;;;;5.90;3.63;;;16.10;99.90;;;;;;5111105;28;20097;-77
2023/03/24 03:47:24;;;;;;;6.05;3.63;;;12.90;99.90;;;;;;5067425;28;20062;-74
2023/03/24 03:49:50;;;;;;;6.05;3.38;;;13.50;99.90;;;;;;5086654;28;20330;-77
2023/03/24 03:52:17;;;;;;;5.78;3.10;;;13.00;99.90;;;;;;5105856;28;20036;-76
2023/03/24 03:54:46;;;;;;;4.63;3.17;;;12.30;99.90;;;;;;5096292;28;20036;-75
2023/03/24 03:57:18;;;;;;;4.80;3.35;;;14.30;99.90;;;;;;5067264;28;20032;-76
2023/03/24 03:59:55;;;;;;;6.18;3.33;;;12.50;99.90;;;;;;5050185;28;20075;-76
2023/03/24 04:03:32;;;;;;;;;;;;;;;;;;;;;
2023/03/24 04:06:49;;;;;;;3.97;2.88;;;14.30;99.90;;;;;;5117105;28;20046;-77
2023/03/24 04:09:45;;;;;;;3.63;2.83;;;12.00;99.90;;;;;;5085931;28;20036;-76
2023/03/24 04:12:45;;;;;;;4.10;2.65;;;13.30;99.90;;;;;;5076626;28;20042;-75
2023/03/24 04:15:17;;;;;;;4.95;3.28;;;14.50;99.90;;;;;;5102291;28;20027;-76
2023/03/24 04:17:59;;;;;;;7.43;2.70;;;13.60;99.90;;;;;;5086944;28;20067;-74
2023/03/24 04:20:50;;;;;;;5.53;3.17;;;11.60;99.90;;;;;;5092349;27;20058;-78
2023/03/24 04:27:49;;;;;;;;;;;11.20;99.90;;;;;;5032260;28;20038;-78
2023/03/24 04:30:45;;;;;;;4.70;1.52;;;11.30;99.90;;;;;;5133027;27;19920;-76
2023/03/24 04:33:27;;;;;;;8.02;1.85;;;13.20;99.90;;;;;;5103341;28;20027;-78
2023/03/24 04:36:15;;;;;;;7.68;1.70;;;11.50;99.90;;;;;;5075351;28;20061;-76
2023/03/24 04:38:55;;;;;;;5.55;1.65;;;11.30;99.90;;;;;;5068558;28;20074;-74
2023/03/24 04:41:24;;;;;;;7.20;1.65;;;13.30;99.90;;;;;;5062124;28;20051;-78
2023/03/24 04:43:53;;;;;;;4.03;1.65;;;12.20;99.90;;;;;;5118728;27;20108;-78
2023/03/24 04:46:21;;;;;;;4.88;1.80;;;12.80;99.90;;;;;;5073901;28;20043;-75
2023/03/24 04:48:47;;;;;;;8.85;1.85;;;13.00;99.90;;;;;;5083391;28;20032;-78
2023/03/24 04:51:15;;;;;;;5.78;1.52;;;13.20;99.90;;;;;;5107448;28;20042;-78
2023/03/24 04:53:45;;;;;;;4.40;1.48;;;11.90;99.90;;;;;;5086616;28;20114;-80
2023/03/24 04:56:23;;;;;;;5.40;1.88;;;11.90;99.90;;;;;;5085199;28;20040;-77
2023/03/24 04:58:51;;;;;;;5.95;2.03;;;12.50;99.90;;;;;;5066760;28;20042;-78
2023/03/24 05:01:29;;;;;;;5.95;1.75;;;12.30;99.90;;;;;;5077728;28;20072;-76
2023/03/24 05:04:35;;;;;;;5.07;1.70;;;11.00;99.90;;;;;;5105326;27;20144;-75
2023/03/24 05:07:20;;;;;;;8.88;2.40;;;11.80;99.90;;;;;;5051568;28;20088;-76
2023/03/24 05:10:04;;;;;;;7.53;1.60;;;12.90;99.90;;;;;;5084595;28;20039;-77
2023/03/24 05:12:30;;;;;;;4.10;1.60;;;10.70;99.90;;;;;;5084029;28;20058;-75
2023/03/24 05:14:56;;;;;;;5.80;2.00;;;11.00;99.90;;;;;;5061599;28;20032;-76
2023/03/24 05:17:30;;;;;;;7.65;2.20;;;12.50;99.90;;;;;;5078665;28;20034;-74
2023/03/24 05:19:56;;;;;;;10.23;2.13;;;12.70;99.90;;;;;;5082532;27;20035;-76
2023/03/24 05:22:22;;;;;;;6.93;2.35;;;12.70;99.90;;;;;;5085386;28;20337;-76
2023/03/24 05:24:47;;;;;;;6.00;2.08;;;10.30;99.90;;;;;;5069228;28;20042;-76
2023/03/24 05:27:21;;;;;;;8.65;2.33;;;12.50;99.90;;;;;;5068929;28;20044;-76
2023/03/24 05:29:46;;;;;;;7.85;2.20;;;10.90;99.90;;;;;;5087498;28;20153;-78
2023/03/24 05:32:12;;;;;;;13.32;2.65;;;12.00;99.90;;;;;;5068134;28;20268;-75
2023/03/24 05:34:38;;;;;;;9.00;2.10;;;12.70;99.90;;;;;;5070819;28;20093;-76
2023/03/24 05:37:30;;;;;;;7.10;2.00;;;11.30;99.90;;;;;;5063112;28;20043;-76
2023/03/24 05:39:56;;;;;;;6.82;2.42;;;12.30;99.90;;;;;;5082085;28;20108;-75
2023/03/24 05:42:25;;;;;;;7.78;2.40;;;11.20;99.90;;;;;;5084493;28;20047;-79
2023/03/24 05:44:50;;;;;;;11.25;2.78;;;12.10;99.90;;;;;;5082976;28;20107;-74
2023/03/24 05:47:18;;;;;;;11.85;2.67;;;10.90;99.90;;;;;;5051234;28;20031;-78
2023/03/24 05:49:50;;;;;;;11.38;2.97;;;11.00;99.90;;;;;;5083181;28;20034;-76
2023/03/24 05:52:28;;;;;;;10.65;2.92;;;12.80;99.90;;;;;;5110420;28;20093;-73
2023/03/24 05:54:54;;;;;;;11.88;2.90;;;12.30;99.90;;;;;;5066138;28;20109;-74
2023/03/24 05:57:20;;;;;;;8.50;2.45;;;12.50;99.90;;;;;;5095121;28;20481;-70
2023/03/24 05:59:46;;;;;;;8.82;3.00;;;10.40;99.90;;;;;;5069554;28;20031;-73
2023/03/24 06:02:12;;;;;;;9.82;2.75;;;12.00;99.90;;;;;;5085368;28;20030;-75
2023/03/24 06:04:37;;;;;;;12.27;2.92;;;10.20;99.90;;;;;;5102734;28;20194;-77
2023/03/24 06:07:03;;;;;;;12.52;2.95;;;10.20;99.90;;;;;;5073568;28;20654;-73
2023/03/24 06:09:34;;;;;;;9.23;3.63;;;13.40;99.90;;;;;;5099379;28;20035;-74
2023/03/24 06:12:04;;;;;;;12.05;2.83;;;10.70;99.90;;;;;;5083295;28;20120;-74
2023/03/24 06:14:32;;;;;;;12.77;2.47;;;13.40;99.90;;;;;;5095753;28;20050;-75
2023/03/24 06:17:06;;;;;;;11.07;3.80;;;10.90;99.90;;;;;;5081613;28;20040;-75
2023/03/24 06:19:33;;;;;;;18.17;3.65;;;13.40;99.90;;;;;;5104696;28;20240;-74
2023/03/24 06:22:02;;;;;;;12.15;2.72;;;10.10;99.90;;;;;;5087016;28;20036;-76
2023/03/24 06:24:28;;;;;;;8.57;2.33;;;10.40;99.90;;;;;;5087255;28;20024;-75
2023/03/24 06:27:00;;;;;;;10.38;2.50;;;12.80;99.90;;;;;;5071135;28;20085;-78
2023/03/24 06:33:24;;;;;;;13.27;2.90;;;9.50;99.90;;;;;;5069190;28;20035;-76
2023/03/24 06:35:54;;;;;;;11.52;2.55;;;12.20;99.90;;;;;;5078822;28;20050;-77
2023/03/24 06:38:21;;;;;;;12.43;2.80;;;13.30;99.90;;;;;;5082814;28;20042;-76
2023/03/24 06:40:46;;;;;;;8.77;2.38;;;12.60;99.90;;;;;;5084238;28;20036;-78
2023/03/24 06:43:12;;;;;;;11.30;3.08;;;12.60;99.90;;;;;;5058790;28;20245;-75
2023/03/24 06:45:38;;;;;;;11.75;2.40;;;11.90;99.90;;;;;;5100317;28;20078;-76
2023/03/24 06:48:05;;;;;;;7.47;2.38;;;11.10;99.90;;;;;;5106267;28;20058;-76
2023/03/24 06:50:34;;;;;;;6.97;2.30;;;10.40;99.90;;;;;;5069874;28;20099;-77
2023/03/24 06:53:00;;;;;;;10.63;3.20;;;12.10;99.90;;;;;;5088181;28;20031;-78
2023/03/24 06:55:32;;;;;;;9.35;3.45;;;11.40;99.90;;;;;;5077724;28;20024;-79
2023/03/24 06:57:58;;;;;;;15.65;2.90;;;13.50;99.90;;;;;;5075202;27;20031;-76
2023/03/24 07:00:24;;;;;;;9.60;2.60;;;10.50;99.90;;;;;;5090605;28;20037;-75
2023/03/24 07:06:22;;;;;;;9.93;2.58;;;11.50;99.90;;;;;;5104261;28;20031;-75
2023/03/24 07:08:54;;;;;;;9.20;2.33;;;10.60;99.90;;;;;;5085094;28;20082;-75
2023/03/24 07:11:20;;;;;;;8.88;2.47;;;13.10;99.90;;;;;;5103881;28;20031;-76
2023/03/24 07:13:45;;;;;;;12.40;3.47;;;10.90;99.90;;;;;;5090282;28;20028;-75
2023/03/24 07:16:11;;;;;;;13.32;3.28;;;12.40;99.90;;;;;;5100262;28;20059;-75
2023/03/24 07:18:37;;;;;;;10.60;3.20;;;13.50;99.90;;;;;;5078219;28;20102;-76
2023/03/24 07:21:03;;;;;;;13.13;3.10;;;13.80;99.90;;;;;;5085702;28;20020;-74
2023/03/24 07:23:29;;;;;;;15.25;2.92;;;12.80;99.90;;;;;;5087708;28;20024;-75
2023/03/24 07:25:58;;;;;;;8.77;2.70;;;12.90;99.90;;;;;;5068485;28;20326;-74
2023/03/24 07:28:26;;;;;;;14.40;2.53;;;11.10;99.90;;;;;;5085561;28;20077;-75
2023/03/24 07:30:52;;;;;;;15.75;3.10;;;11.50;99.90;;;;;;5098406;28;20043;-73
2023/03/24 07:33:18;;;;;;;10.32;3.22;;;13.00;99.90;;;;;;5102058;28;20081;-75
2023/03/24 07:35:52;;;;;;;13.40;3.08;;;10.90;99.90;;;;;;5071536;28;20038;-75
2023/03/24 07:38:21;;;;;;;10.27;2.55;;;11.70;99.90;;;;;;5087017;28;20027;-75
2023/03/24 07:40:47;;;;;;;11.40;2.90;;;11.50;99.90;;;;;;5124077;27;20044;-76
2023/03/24 07:43:13;;;;;;;11.80;2.90;;;13.30;99.90;;;;;;5088048;28;20065;-75
2023/03/24 07:45:43;;;;;;;9.40;3.25;;;13.10;99.90;;;;;;5065001;28;20028;-73
2023/03/24 07:48:08;;;;;;;8.93;2.30;;;11.00;99.90;;;;;;5082848;28;20028;-75
2023/03/24 07:50:34;;;;;;;8.20;2.30;;;12.60;99.90;;;;;;5100364;28;20028;-73
2023/03/24 07:53:02;;;;;;;12.45;2.55;;;11.10;99.90;;;;;;5067134;28;20028;-73
2023/03/24 07:55:41;;;;;;;;;;;;;;;;;;;;;
2023/03/24 07:58:56;;;;;;;12.10;2.47;;;11.20;99.90;;;;;;5088014;28;20427;-74
2023/03/24 08:01:21;;;;;;;;;;;12.30;99.90;;;;;;5079604;28;20024;-74
2023/03/24 08:04:00;;;;;;;12.02;2.78;;;11.80;99.90;;;;;;5085023;28;20171;-72
2023/03/24 08:06:58;;;;;;;9.98;2.50;;;13.20;99.90;;;;;;5077404;28;20107;-73
2023/03/24 08:09:26;;;;;;;13.85;3.55;;;14.00;99.90;;;;;;5065343;28;20074;-75
2023/03/24 08:11:57;;;;;;;14.05;2.55;;;11.50;99.90;;;;;;5085291;28;20108;-73
2023/03/24 08:18:08;;;;;;;12.18;4.15;;;13.40;99.90;;;;;;5074145;28;20415;-75
2023/03/24 08:20:34;;;;;;;13.93;3.30;;;13.50;99.90;;;;;;5073892;28;20302;-75
2023/03/24 08:26:41;;;;;;;18.30;3.28;;;13.90;99.90;;;;;;5126178;27;20076;-73
2023/03/24 08:29:08;;;;;;;12.52;3.00;;;12.40;99.90;;;;;;5095695;28;20058;-74
2023/03/24 08:31:35;;;;;;;12.38;2.55;;;12.10;99.90;;;;;;5083718;28;20234;-73
2023/03/24 08:34:02;;;;;;;14.65;2.75;;;15.60;99.90;;;;;;5125555;27;20024;-72
2023/03/24 08:36:28;;;;;;;15.02;2.83;;;13.70;99.90;;;;;;5078086;28;20036;-74
2023/03/24 08:38:55;;;;;;;20.00;3.75;;;12.90;99.90;;;;;;5072419;28;20062;-73
2023/03/24 08:41:29;;;;;;;18.08;2.72;;;12.60;99.90;;;;;;5101422;28;20081;-75
2023/03/24 08:43:55;;;;;;;13.63;3.15;;;13.70;99.90;;;;;;5078801;28;20047;-74
2023/03/24 08:47:16;;;;;;;15.93;3.60;;;13.90;99.90;;;;;;5110693;28;20031;-72
2023/03/24 08:54:02;;;;;;;16.05;3.70;;;12.40;99.90;;;;;;5049968;28;20314;-74
2023/03/24 08:56:29;;;;;;;13.20;2.75;;;13.60;99.90;;;;;;5086786;28;20054;-76
2023/03/24 09:02:35;;;;;;;16.00;3.65;;;13.00;99.90;;;;;;5110054;28;20237;-74
2023/03/24 09:05:04;;;;;;;11.10;2.58;;;13.90;99.90;;;;;;5065002;28;20086;-74
2023/03/24 09:07:32;;;;;;;10.98;2.55;;;14.10;99.90;;;;;;5126967;27;20172;-74
2023/03/24 09:10:01;;;;;;;13.50;2.97;;;13.70;99.90;;;;;;5088672;28;20046;-75
2023/03/24 09:12:27;;;;;;;12.27;3.20;;;13.40;99.90;;;;;;5082458;28;20097;-73
2023/03/24 09:18:21;;;;;;;15.23;3.70;;;13.70;99.90;;;;;;5069163;28;20044;-75
2023/03/24 09:20:47;;;;;;;12.48;2.50;;;13.50;99.90;;;;;;5098483;28;20046;-72
2023/03/24 09:23:15;;;;;;;13.45;2.88;;;13.70;99.90;;;;;;5101829;28;20039;-77
2023/03/24 09:25:44;;;;;;;14.10;3.03;;;13.50;99.90;;;;;;5084629;28;20034;-76
2023/03/24 09:28:16;;;;;;;14.93;2.53;;;13.30;99.90;;;;;;5081612;28;20027;-77
2023/03/24 09:30:47;;;;;;;14.77;3.00;;;13.40;99.90;;;;;;5082027;28;20099;-73
2023/03/24 09:33:22;;;;;;;11.18;2.65;;;13.10;99.90;;;;;;5098492;28;20036;-74
2023/03/24 09:36:09;;;;;;;7.82;2.30;;;12.90;99.90;;;;;;5093193;28;20052;-74
2023/03/24 09:38:34;;;;;;;10.65;2.58;;;12.80;99.90;;;;;;5075892;28;20038;-74
2023/03/24 09:41:02;;;;;;;9.82;2.60;;;12.70;99.90;;;;;;5082123;28;20055;-75
2023/03/24 09:43:43;;;;;;;16.42;2.92;;;12.50;99.90;;;;;;5101998;28;20318;-73
2023/03/24 09:49:15;;;;;;;11.68;2.63;;;12.70;99.90;;;;;;5117545;28;20067;-73
2023/03/24 09:51:43;;;;;;;16.13;3.05;;;13.40;99.90;;;;;;5101754;28;20082;-76
2023/03/24 09:54:26;;;;;;;12.40;3.10;;;14.00;99.90;;;;;;5069580;28;20050;-73
2023/03/24 09:56:54;;;;;;;11.68;2.40;;;14.50;99.90;;;;;;5080593;28;20078;-74
2023/03/24 09:59:30;;;;;;;11.50;2.78;;;14.70;99.90;;;;;;5097719;28;20237;-75
2023/03/24 10:01:57;;;;;;;14.43;2.38;;;14.90;99.90;;;;;;5101034;28;20043;-76
2023/03/24 10:04:58;;;;;;;12.80;2.50;;;15.70;99.90;;;;;;5122123;28;20106;-72
2023/03/24 10:07:33;;;;;;;11.35;2.47;;;14.80;99.90;;;;;;5078155;28;20115;-77
2023/03/24 10:10:00;;;;;;;10.80;2.78;;;16.20;99.90;;;;;;5083001;28;20031;-73
2023/03/24 10:12:47;;;;;;;11.68;2.55;;;15.30;99.90;;;;;;5089626;28;20047;-74
2023/03/24 10:15:25;;;;;;;14.25;2.50;;;15.80;99.90;;;;;;5066544;28;20042;-76
2023/03/24 10:18:16;;;;;;;10.43;2.40;;;14.80;99.90;;;;;;5079159;28;20025;-76
2023/03/24 10:21:15;;;;;;;6.78;2.38;;;14.80;99.90;;;;;;5075401;28;20028;-77
2023/03/24 10:23:58;;;;;;;11.07;2.60;;;14.50;99.90;;;;;;5092550;28;20111;-75
2023/03/24 10:26:46;;;;;;;12.55;2.40;;;14.50;99.90;;;;;;5100223;28;20040;-74
2023/03/24 10:29:21;;;;;;;10.48;2.78;;;14.50;99.90;;;;;;5083463;28;20110;-74
2023/03/24 10:32:03;;;;;;;8.85;2.17;;;14.40;99.90;;;;;;5084162;28;20044;-73
2023/03/24 10:34:32;;;;;;;15.60;3.10;;;14.70;99.90;;;;;;5094066;28;20050;-74
2023/03/24 10:37:03;;;;;;;10.13;2.42;;;14.60;99.90;;;;;;5098232;28;20188;-76
2023/03/24 10:39:30;;;;;;;12.00;2.50;;;14.50;99.90;;;;;;5097566;28;20226;-74
2023/03/24 10:41:58;;;;;;;9.27;2.15;;;14.30;99.90;;;;;;5082659;28;20357;-72
2023/03/24 10:44:25;;;;;;;8.73;1.83;;;14.20;99.90;;;;;;5067239;28;20104;-74
2023/03/24 10:46:55;;;;;;;10.00;2.55;;;14.20;99.90;;;;;;5093573;28;20024;-73
2023/03/24 10:49:24;;;;;;;10.60;2.58;;;14.10;99.90;;;;;;5070509;28;20023;-76
2023/03/24 10:52:02;;;;;;;11.73;2.60;;;14.20;99.90;;;;;;5074645;28;20100;-73
2023/03/24 10:58:34;;;;;;;13.95;2.65;;;14.90;99.90;;;;;;5117723;28;20116;-76
2023/03/24 11:01:02;;;;;;;11.07;2.78;;;15.50;99.90;;;;;;5101579;28;20043;-72
2023/03/24 11:03:54;;;;;;;11.05;2.50;;;15.90;99.90;;;;;;5096200;28;20051;-72
2023/03/24 11:06:20;;;;;;;8.98;2.70;;;16.40;99.90;;;;;;5099659;28;20392;-76
2023/03/24 11:08:46;;;;;;;9.20;2.65;;;16.80;99.90;;;;;;5102329;27;20042;-73
2023/03/24 11:11:22;;;;;;;6.78;2.30;;;16.90;99.90;;;;;;5072583;28;20040;-70
2023/03/24 11:14:44;;;;;;;11.82;2.65;;;17.10;99.90;;;;;;5089730;28;20114;-73
2023/03/24 11:17:15;;;;;;;11.80;2.95;;;17.00;99.90;;;;;;5008044;28;20038;-72
2023/03/24 11:19:55;;;;;;;8.80;2.63;;;17.20;99.90;;;;;;5085892;28;20697;-71
2023/03/24 11:22:53;;;;;;;13.43;3.17;;;17.00;99.90;;;;;;5076434;28;20103;-74
2023/03/24 11:25:30;;;;;;;13.18;3.03;;;17.00;99.90;;;;;;5108499;28;20027;-73
2023/03/24 11:28:28;;;;;;;9.38;2.35;;;16.90;99.90;;;;;;5090150;28;20087;-74
2023/03/24 11:31:04;;;;;;;16.33;2.60;;;16.90;99.90;;;;;;5049173;27;20035;-72
2023/03/24 11:33:33;;;;;;;9.35;2.88;;;16.90;99.90;;;;;;5092763;28;20034;-73
2023/03/24 11:36:31;;;;;;;8.32;2.33;;;16.70;99.90;;;;;;5085468;28;20274;-74
2023/03/24 11:39:13;;;;;;;12.80;2.97;;;16.40;99.90;;;;;;5038309;28;20043;-74
2023/03/24 11:41:42;;;;;;;9.07;2.05;;;16.60;99.90;;;;;;5073149;28;20059;-75
2023/03/24 11:44:21;;;;;;;10.70;2.65;;;17.00;99.90;;;;;;5085601;28;20044;-73
2023/03/24 11:46:54;;;;;;;8.63;2.20;;;16.90;91.20;;;;;;5085707;28;20031;-75
2023/03/24 11:49:24;;;;;;;9.23;2.50;;;16.70;77.80;;;;;;5096631;28;20031;-74
2023/03/24 11:51:58;;;;;;;10.07;2.80;;;16.60;84.90;;;;;;5074553;28;20031;-73
2023/03/24 11:54:39;;;;;;;8.38;2.15;;;16.50;66.00;;;;;;5081167;28;20068;-72
2023/03/24 11:57:12;;;;;;;9.43;2.63;;;16.80;99.90;;;;;;5084082;28;20067;-74
2023/03/24 11:59:56;;;;;;;10.38;2.58;;;16.80;49.70;;;;;;5074999;28;20051;-77
2023/03/24 12:02:28;;;;;;;;;;;16.70;63.70;;;;;;5076967;28;20222;-74
2023/03/24 12:05:18;;;;;;;6.80;2.08;;;16.50;13.40;;;;;;5099019;28;19911;-76
2023/03/24 12:08:11;;;;;;;11.75;2.38;;;16.70;44.80;;;;;;5085099;28;20039;-73
2023/03/24 12:10:53;;;;;;;9.85;2.47;;;16.20;2.90;;;;;;5104309;28;20089;-78
2023/03/24 12:13:37;;;;;;;7.03;2.00;;;16.20;30.40;;;;;;5088512;28;20032;-76
2023/03/24 12:16:24;;;;;;;8.77;2.00;;;16.30;26.10;;;;;;5100967;28;20031;-75
2023/03/24 12:19:20;;;;;;;9.90;2.40;;;16.40;8.20;;;;;;5092079;27;20031;-73
2023/03/24 12:22:25;;;;;;;8.20;1.90;;;16.10;1.00;;;;;;5098844;27;20123;-74
2023/03/24 12:25:09;;;;;;;6.68;1.80;;;16.30;14.80;;;;;;5070471;28;20026;-74
2023/03/24 12:28:09;;;;;;;10.60;2.13;;;16.10;5.10;;;;;;5095688;28;20314;-75
2023/03/24 12:30:53;;;;;;;12.32;2.22;;;16.10;15.20;;;;;;5094990;28;20032;-71
2023/03/24 12:33:28;;;;;;;6.35;2.03;;;16.10;52.20;;;;;;5075112;28;20310;-75
2023/03/24 12:36:18;;;;;;;14.82;3.15;;;16.00;56.80;;;;;;5120218;27;20073;-74
2023/03/24 12:39:41;;;;;;;9.30;2.30;;;15.90;54.40;;;;;;5084501;28;20035;-73
2023/03/24 12:42:12;;;;;;;12.15;2.25;;;16.00;50.10;;;;;;5064061;28;20059;-72
2023/03/24 12:48:06;;;;;;;10.23;1.83;;;16.10;37.30;;;;;;5086562;28;20046;-75
2023/03/24 12:54:22;;;;;;;9.93;2.65;;;15.20;40.50;;;;;;5105778;28;20026;-76
2023/03/24 12:56:53;;;;;;;8.02;2.22;;;16.00;49.10;;;;;;5096780;28;20144;-76
2023/03/24 12:59:38;;;;;;;7.00;1.85;;;15.90;59.20;;;;;;5080759;28;20091;-73
2023/03/24 13:02:04;;;;;;;;;;;16.20;91.90;;;;;;5100428;28;20440;-76
2023/03/24 13:04:36;;;;;;;11.60;2.78;;;16.20;70.00;;;;;;5127135;27;19916;-74
2023/03/24 13:07:16;;;;;;;6.43;1.70;;;16.10;1.00;;;;;;5084305;28;20102;-75
2023/03/24 13:17:26;;;;;;;;;;;;;;;;;;;;;
2023/03/24 13:20:13;;;;;;;11.60;2.45;;;16.00;1.00;;;;;;5056626;28;20074;-73
2023/03/24 13:23:43;;;;;;;;;;;;;;;;;;;;;
2023/03/24 13:26:23;;;;;;;13.77;2.35;;;16.60;1.00;;;;;;5120241;27;20038;-75
2023/03/24 13:29:02;;;;;;;7.75;2.17;;;16.70;1.00;;;;;;5084764;28;20062;-73
2023/03/24 13:32:00;;;;;;;6.40;1.90;;;16.30;99.90;;;;;;5115260;27;21270;-74
2023/03/24 13:34:32;;;;;;;8.95;1.83;;;16.80;99.90;;;;;;5092698;28;20036;-76
2023/03/24 13:37:08;;;;;;;7.82;1.75;;;16.70;1.00;;;;;;5082195;28;20043;-76
2023/03/24 13:39:36;;;;;;;7.30;2.13;;;16.60;1.00;;;;;;5076002;28;20098;-75
2023/03/24 13:42:02;;;;;;;5.00;1.90;;;16.70;1.00;;;;;;5071959;28;20057;-75
2023/03/24 13:44:47;;;;;;;6.18;1.73;;;16.60;99.90;;;;;;5083110;28;20301;-75
2023/03/24 13:47:18;;;;;;;6.68;2.03;;;16.90;99.90;;;;;;5097316;28;20055;-74
2023/03/24 13:50:00;;;;;;;8.20;1.88;;;16.60;99.90;;;;;;5076192;28;20052;-74
2023/03/24 13:52:44;;;;;;;8.00;1.80;;;16.80;99.90;;;;;;5088843;28;20043;-73
2023/03/24 13:55:19;;;;;;;5.75;1.83;;;16.70;1.00;;;;;;5083342;28;20210;-74
2023/03/24 13:57:55;;;;;;;8.13;2.05;;;17.10;99.90;;;;;;5079066;28;20042;-77
2023/03/24 14:00:26;;;;;;;10.15;2.33;;;17.40;1.00;;;;;;5088752;28;20149;-77
2023/03/24 14:06:45;;;;;;;8.55;1.80;;;16.80;99.90;;;;;;5091413;28;20498;-75
2023/03/24 14:09:33;;;;;;;11.88;2.58;;;16.70;99.90;;;;;;5100001;28;20153;-72
2023/03/24 14:12:06;;;;;;;7.78;2.22;;;16.60;1.00;;;;;;5121161;28;20028;-73
2023/03/24 14:18:42;;;;;;;5.70;1.73;;;17.10;23.70;;;;;;5094086;28;20028;-78
2023/03/24 14:21:40;;;;;;;10.02;2.30;;;17.10;99.90;;;;;;5097318;28;20030;-73
2023/03/24 14:24:22;;;;;;;9.88;2.10;;;16.60;1.00;;;;;;5070425;28;20412;-74
2023/03/24 14:38:14;;;;;;;8.18;2.35;;;15.70;1.00;;;;;;4982162;28;20330;-75
2023/03/24 14:41:30;;;;;;;;;;;;;;;;;;;;;
2023/03/24 14:44:07;;;;;;;8.65;2.00;;;16.40;1.00;;;;;;5066472;28;20098;-74
2023/03/24 14:46:50;;;;;;;7.95;2.25;;;15.70;1.00;;;;;;5050992;28;20037;-74
2023/03/24 14:49:31;;;;;;;11.27;2.20;;;15.70;1.00;;;;;;5069529;28;20051;-74
2023/03/24 14:51:57;;;;;;;9.48;2.50;;;15.70;1.00;;;;;;5097224;28;20196;-76
2023/03/24 14:54:28;;;;;;;5.90;1.70;;;15.50;1.00;;;;;;5072049;28;20057;-74
2023/03/24 14:56:56;;;;;;;7.03;2.15;;;15.70;1.00;;;;;;5073478;28;20039;-76
2023/03/24 15:00:22;;;;;;;7.43;1.70;;;15.50;1.00;;;;;;5092945;28;20066;-76
2023/03/24 15:03:24;;;;;;;9.15;2.08;;;15.40;1.00;;;;;;5061234;28;20036;-74
2023/03/24 15:06:13;;;;;;;9.25;1.77;;;15.30;1.00;;;;;;5034635;28;20228;-73
2023/03/24 15:08:57;;;;;;;15.88;2.58;;;14.90;1.00;;;;;;5054009;28;20490;-75
2023/03/24 15:11:34;;;;;;;8.23;2.15;;;14.90;9.80;;;;;;5052194;28;20342;-72
2023/03/24 15:14:04;;;;;;;8.25;1.88;;;14.90;28.30;;;;;;5023917;28;20103;-75
2023/03/24 15:16:35;;;;;;;10.43;2.13;;;15.00;61.60;;;;;;5047711;28;20120;-77
2023/03/24 15:19:08;;;;;;;8.70;2.40;;;15.10;60.40;;;;;;5053143;28;20028;-72
2023/03/24 15:21:46;;;;;;;11.70;2.35;;;15.10;68.10;;;;;;5015450;28;20045;-75
2023/03/24 15:24:20;;;;;;;6.60;1.90;;;15.00;57.80;;;;;;5038882;28;20404;-75
2023/03/24 15:26:52;;;;;;;6.13;1.50;;;14.80;71.30;;;;;;5041535;28;20049;-76